createdAt,value
2024-01-24T00:01:01.414Z,3.30
2024-01-24T00:03:30.051Z,3.57
2024-01-24T00:05:59.622Z,2.87
2024-01-24T00:08:29.784Z,3.03
2024-01-24T00:10:58.521Z,2.40
2024-01-24T00:13:27.076Z,2.40
2024-01-24T00:15:55.656Z,2.70
2024-01-24T00:18:24.354Z,2.90
2024-01-24T00:20:54.465Z,2.60
2024-01-24T00:23:24.320Z,2.63
2024-01-24T00:25:54.292Z,2.50
2024-01-24T00:28:27.557Z,2.40
2024-01-24T00:30:56.149Z,2.80
2024-01-24T00:33:26.162Z,2.50
2024-01-24T00:35:54.702Z,2.90
2024-01-24T00:38:23.215Z,2.77
2024-01-24T00:40:51.738Z,2.17
2024-01-24T00:43:22.500Z,2.13
2024-01-24T00:45:51.191Z,2.20
2024-01-24T00:48:19.912Z,2.37
2024-01-24T00:50:48.455Z,1.90
2024-01-24T00:53:18.170Z,1.80
2024-01-24T00:55:47.786Z,2.10
2024-01-24T00:58:16.288Z,1.50
2024-01-24T01:00:46.259Z,1.47
2024-01-24T01:03:14.903Z,1.67
2024-01-24T01:05:43.580Z,1.40
2024-01-24T01:08:12.132Z,1.43
2024-01-24T01:10:40.646Z,1.47
2024-01-24T01:13:09.193Z,2.13
2024-01-24T01:15:37.970Z,1.00
2024-01-24T01:18:08.141Z,1.17
2024-01-24T01:20:36.697Z,1.40
2024-01-24T01:23:05.595Z,1.23
2024-01-24T01:25:34.181Z,1.50
2024-01-24T01:28:02.697Z,1.13
2024-01-24T01:30:32.028Z,1.20
2024-01-24T01:33:00.673Z,1.00
2024-01-24T01:35:30.893Z,1.20
2024-01-24T01:37:59.394Z,1.10
2024-01-24T01:40:28.280Z,0.90
2024-01-24T01:42:56.877Z,0.90
2024-01-24T01:45:25.601Z,0.80
2024-01-24T01:47:54.406Z,0.87
2024-01-24T01:50:23.201Z,0.60
2024-01-24T01:52:53.371Z,0.80
2024-01-24T01:55:21.882Z,0.60
2024-01-24T01:57:50.786Z,0.67
2024-01-24T02:00:22.193Z,0.47
2024-01-24T02:02:51.260Z,0.57
2024-01-24T02:05:20.298Z,0.67
2024-01-24T02:07:49.204Z,0.87
2024-01-24T02:10:19.258Z,0.70
2024-01-24T02:12:47.802Z,0.50
2024-01-24T02:15:16.428Z,0.37
2024-01-24T02:17:45.293Z,0.40
2024-01-24T02:20:14.630Z,0.60
2024-01-24T02:22:45.496Z,0.50
2024-01-24T02:25:15.398Z,0.40
2024-01-24T02:27:46.692Z,0.67
2024-01-24T02:30:16.577Z,0.43
2024-01-24T02:32:45.178Z,0.40
2024-01-24T02:35:13.712Z,0.40
2024-01-24T02:37:42.222Z,0.70
2024-01-24T02:40:11.456Z,0.37
2024-01-24T02:42:41.638Z,0.37
2024-01-24T02:45:10.512Z,0.40
2024-01-24T02:47:39.333Z,0.50
2024-01-24T02:50:11.323Z,0.50
2024-01-24T02:52:41.470Z,0.30
2024-01-24T02:55:10.461Z,0.20
2024-01-24T02:57:38.990Z,0.10
2024-01-24T03:00:10.971Z,0.33
2024-01-24T03:02:39.545Z,0.20
2024-01-24T03:05:10.239Z,0.60
2024-01-24T03:07:39.245Z,0.20
2024-01-24T03:10:09.334Z,0.10
2024-01-24T03:12:38.840Z,0.30
2024-01-24T03:15:09.433Z,0.17
2024-01-24T03:17:38.029Z,0.10
2024-01-24T03:20:08.206Z,0.20
2024-01-24T03:22:36.707Z,0.10
2024-01-24T03:25:05.791Z,0.10
2024-01-24T03:27:34.540Z,0.13
2024-01-24T03:30:03.079Z,0.10
2024-01-24T03:32:33.039Z,0.00
2024-01-24T03:35:01.661Z,0.00
2024-01-24T03:37:30.235Z,0.00
2024-01-24T03:39:58.800Z,0.20
2024-01-24T03:42:27.361Z,0.00
2024-01-24T03:44:55.894Z,0.00
2024-01-24T03:47:24.406Z,0.00
2024-01-24T03:49:54.385Z,0.07
2024-01-24T03:52:22.940Z,0.00
2024-01-24T03:54:51.876Z,0.00
2024-01-24T03:57:20.486Z,0.00
2024-01-24T03:59:49.042Z,0.10
2024-01-24T04:02:17.751Z,0.00
2024-01-24T04:04:46.338Z,0.00
2024-01-24T04:07:16.340Z,0.00
2024-01-24T04:09:44.881Z,0.00
2024-01-24T04:12:13.842Z,0.00
2024-01-24T04:14:42.348Z,0.13
2024-01-24T04:17:10.955Z,0.10
2024-01-24T04:19:40.917Z,0.00
2024-01-24T04:22:10.077Z,0.00
2024-01-24T04:24:40.004Z,0.00
2024-01-24T04:27:09.440Z,0.03
2024-01-24T04:29:38.101Z,0.00
2024-01-24T04:32:07.139Z,0.10
2024-01-24T04:34:35.715Z,0.10
2024-01-24T04:37:04.389Z,0.00
2024-01-24T04:39:32.965Z,0.00
2024-01-24T04:42:11.569Z,0.03
2024-01-24T04:44:44.721Z,0.00
2024-01-24T04:47:14.840Z,0.10
2024-01-24T04:49:45.506Z,0.00
2024-01-24T04:52:15.376Z,0.00
2024-01-24T04:54:44.416Z,0.10
2024-01-24T04:57:15.619Z,0.00
2024-01-24T04:59:50.192Z,0.00
2024-01-24T05:02:24.503Z,0.00
2024-01-24T05:04:53.240Z,0.00
2024-01-24T05:07:21.935Z,0.03
2024-01-24T05:09:50.568Z,0.00
2024-01-24T05:12:20.583Z,0.00
2024-01-24T05:14:49.150Z,0.07
2024-01-24T05:17:17.664Z,0.00
2024-01-24T05:19:46.219Z,0.00
2024-01-24T05:22:16.519Z,0.00
2024-01-24T05:24:46.694Z,0.00
2024-01-24T05:27:15.543Z,0.00
2024-01-24T05:29:47.840Z,0.00
2024-01-24T05:32:16.644Z,0.00
2024-01-24T05:34:45.229Z,0.00
2024-01-24T05:37:13.846Z,0.00
2024-01-24T05:39:43.212Z,0.00
2024-01-24T05:42:12.672Z,0.00
2024-01-24T05:44:41.244Z,0.00
2024-01-24T05:47:11.125Z,0.10
2024-01-24T05:49:39.733Z,0.00
2024-01-24T05:52:08.731Z,0.10
2024-01-24T05:54:37.383Z,0.00
2024-01-24T05:57:05.959Z,0.00
2024-01-24T05:59:34.547Z,0.00
2024-01-24T06:02:03.615Z,0.07
2024-01-24T06:04:33.707Z,0.07
2024-01-24T06:07:02.755Z,0.10
2024-01-24T06:09:31.445Z,0.07
2024-01-24T06:11:59.968Z,0.00
2024-01-24T06:14:29.873Z,0.00
2024-01-24T06:16:58.422Z,0.10
2024-01-24T06:19:26.996Z,0.07
2024-01-24T06:21:57.025Z,0.07
2024-01-24T06:24:25.683Z,0.10
2024-01-24T06:26:54.270Z,0.10
2024-01-24T06:30:14.964Z,0.10
2024-01-24T06:32:11.266Z,0.00
2024-01-24T06:34:39.968Z,0.07
2024-01-24T06:37:10.950Z,0.00
2024-01-24T06:39:39.517Z,0.00
2024-01-24T06:42:08.104Z,0.00
2024-01-24T06:44:36.713Z,0.00
2024-01-24T06:47:05.260Z,0.07
2024-01-24T06:49:34.792Z,0.90
2024-01-24T06:52:03.448Z,0.03
2024-01-24T06:54:36.493Z,0.00
2024-01-24T06:57:05.566Z,0.00
2024-01-24T06:59:35.142Z,0.00
2024-01-24T07:02:04.677Z,0.10
2024-01-24T07:04:33.643Z,0.00
2024-01-24T07:07:02.377Z,0.20
2024-01-24T07:09:31.000Z,0.00
2024-01-24T07:12:03.432Z,0.00
2024-01-24T07:14:32.032Z,0.00
2024-01-24T07:17:01.286Z,0.10
2024-01-24T07:19:30.170Z,0.00
2024-01-24T07:22:00.898Z,0.00
2024-01-24T07:24:29.769Z,0.00
2024-01-24T07:26:58.338Z,0.10
2024-01-24T07:29:28.235Z,0.10
2024-01-24T07:31:56.774Z,0.13
2024-01-24T07:34:26.176Z,0.10
2024-01-24T07:36:54.809Z,0.53
2024-01-24T07:39:23.382Z,0.50
2024-01-24T07:41:51.965Z,0.20
2024-01-24T07:44:21.153Z,0.37
2024-01-24T07:46:51.175Z,0.80
2024-01-24T07:49:19.984Z,0.53
2024-01-24T07:51:50.510Z,0.40
2024-01-24T07:54:21.517Z,0.47
2024-01-24T07:56:50.301Z,0.90
2024-01-24T07:59:19.609Z,1.20
2024-01-24T08:01:49.718Z,2.60
2024-01-24T08:04:20.397Z,1.60
2024-01-24T08:06:50.680Z,0.47
2024-01-24T08:09:20.014Z,3.07
2024-01-24T08:11:48.697Z,0.73
2024-01-24T08:14:20.070Z,1.33
2024-01-24T08:17:01.395Z,1.80
2024-01-24T08:19:31.471Z,3.90
2024-01-24T08:22:00.351Z,0.80
2024-01-24T08:24:29.038Z,1.63
2024-01-24T08:26:57.660Z,1.30
2024-01-24T08:29:36.068Z,1.03
2024-01-24T08:32:07.241Z,1.23
2024-01-24T08:34:38.726Z,0.80
2024-01-24T08:37:09.537Z,1.03
2024-01-24T08:39:38.168Z,1.43
2024-01-24T08:42:06.776Z,2.67
2024-01-24T08:44:35.303Z,0.90
2024-01-24T08:47:03.830Z,1.70
2024-01-24T08:49:32.558Z,2.03
2024-01-24T08:52:01.382Z,0.80
2024-01-24T08:54:31.513Z,1.53
2024-01-24T08:57:00.062Z,0.60
2024-01-24T08:59:28.579Z,0.53
2024-01-24T09:01:58.374Z,0.60
2024-01-24T09:04:27.399Z,0.30
2024-01-24T09:06:58.941Z,0.30
2024-01-24T09:09:30.694Z,0.40
2024-01-24T09:12:01.354Z,0.23
2024-01-24T09:14:30.169Z,0.50
2024-01-24T09:16:58.772Z,0.37
2024-01-24T09:19:27.722Z,0.20
2024-01-24T09:21:57.163Z,0.40
2024-01-24T09:24:25.947Z,0.47
2024-01-24T09:26:54.493Z,0.10
2024-01-24T09:29:24.384Z,0.40
2024-01-24T09:31:53.489Z,0.10
2024-01-24T09:34:22.306Z,0.20
2024-01-24T09:36:50.988Z,0.30
2024-01-24T09:39:19.985Z,0.20
2024-01-24T09:41:49.950Z,0.30
2024-01-24T09:44:19.108Z,0.30
2024-01-24T09:46:50.754Z,0.10
2024-01-24T09:49:19.941Z,0.10
2024-01-24T09:51:49.456Z,0.00
2024-01-24T09:54:19.426Z,0.13
2024-01-24T09:56:49.637Z,0.80
2024-01-24T09:59:19.050Z,0.20
2024-01-24T10:01:49.605Z,0.10
2024-01-24T10:04:20.714Z,0.20
2024-01-24T10:06:49.633Z,0.00
2024-01-24T10:09:19.011Z,0.20
2024-01-24T10:11:47.678Z,0.00
2024-01-24T10:14:16.309Z,0.33
2024-01-24T10:16:44.914Z,0.20
2024-01-24T10:19:15.402Z,0.20
2024-01-24T10:21:44.038Z,0.20
2024-01-24T10:24:12.735Z,0.13
2024-01-24T10:26:41.577Z,0.00
2024-01-24T10:29:11.114Z,0.40
2024-01-24T10:31:39.847Z,0.10
2024-01-24T10:34:08.877Z,0.10
2024-01-24T10:36:43.760Z,0.20
2024-01-24T10:39:14.988Z,0.20
2024-01-24T10:41:46.079Z,0.10
2024-01-24T10:44:18.186Z,0.10
2024-01-24T10:46:47.315Z,0.20
2024-01-24T10:49:16.452Z,0.20
2024-01-24T10:51:47.258Z,0.57
2024-01-24T10:54:17.737Z,0.90
2024-01-24T10:56:50.197Z,0.70
2024-01-24T10:59:20.000Z,0.90
2024-01-24T11:01:49.542Z,1.30
2024-01-24T11:04:20.487Z,1.00
2024-01-24T11:06:52.612Z,1.50
2024-01-24T11:09:25.476Z,1.80
2024-01-24T11:11:55.022Z,1.37
2024-01-24T11:14:31.782Z,1.63
2024-01-24T11:17:01.164Z,1.50
2024-01-24T11:19:31.068Z,1.20
2024-01-24T11:22:10.545Z,1.27
2024-01-24T11:24:51.575Z,1.30
2024-01-24T11:27:26.756Z,1.60
2024-01-24T11:29:55.998Z,1.17
2024-01-24T11:32:45.361Z,1.40
2024-01-24T11:35:29.669Z,1.30
2024-01-24T11:38:08.654Z,1.50
2024-01-24T11:40:45.668Z,1.70
2024-01-24T11:43:25.330Z,1.50
2024-01-24T11:45:55.522Z,1.47
2024-01-24T11:48:24.726Z,1.80
2024-01-24T11:50:56.978Z,1.83
2024-01-24T11:53:26.929Z,1.33
2024-01-24T11:55:57.864Z,1.43
2024-01-24T11:58:28.350Z,1.70
2024-01-24T12:00:57.501Z,1.73
2024-01-24T12:03:26.289Z,1.77
2024-01-24T12:05:55.416Z,1.83
2024-01-24T12:08:24.208Z,1.70
2024-01-24T12:10:54.146Z,1.50
2024-01-24T12:13:27.151Z,1.17
2024-01-24T12:15:58.193Z,0.87
2024-01-24T12:18:29.143Z,1.00
2024-01-24T12:21:02.157Z,0.80
2024-01-24T12:23:31.766Z,0.70
2024-01-24T12:26:01.850Z,0.80
2024-01-24T12:28:31.038Z,0.80
2024-01-24T12:31:00.432Z,0.73
2024-01-24T12:33:34.457Z,0.70
2024-01-24T12:36:08.639Z,0.57
2024-01-24T12:38:38.154Z,0.50
2024-01-24T12:41:08.278Z,0.50
2024-01-24T12:43:38.364Z,0.43
2024-01-24T12:46:08.597Z,0.50
2024-01-24T12:48:38.437Z,0.40
2024-01-24T12:51:07.918Z,0.40
2024-01-24T12:53:36.658Z,0.40
2024-01-24T12:56:05.705Z,0.60
2024-01-24T12:58:35.873Z,0.50
2024-01-24T13:01:04.694Z,0.53
2024-01-24T13:03:33.576Z,0.70
2024-01-24T13:06:02.604Z,0.50
2024-01-24T13:08:32.798Z,0.40
2024-01-24T13:11:01.483Z,0.50
2024-01-24T13:13:30.720Z,0.47
2024-01-24T13:16:00.714Z,0.53
2024-01-24T13:18:29.468Z,0.40
2024-01-24T13:20:58.044Z,0.60
2024-01-24T13:23:26.622Z,0.37
2024-01-24T13:25:55.261Z,0.50
2024-01-24T13:28:24.806Z,0.50
2024-01-24T13:30:53.530Z,0.40
2024-01-24T13:33:24.050Z,0.40
2024-01-24T13:35:52.686Z,0.70
2024-01-24T13:38:21.414Z,0.57
2024-01-24T13:40:50.362Z,0.40
2024-01-24T13:43:19.744Z,0.33
2024-01-24T13:45:48.501Z,0.40
2024-01-24T13:48:17.245Z,0.20
2024-01-24T13:50:47.169Z,0.20
2024-01-24T13:53:15.742Z,0.20
2024-01-24T13:55:44.545Z,0.40
2024-01-24T13:58:13.569Z,0.30
2024-01-24T14:00:43.001Z,0.10
2024-01-24T14:03:11.906Z,0.37
2024-01-24T14:05:41.031Z,0.50
2024-01-24T14:08:11.104Z,0.40
2024-01-24T14:10:39.716Z,0.30
2024-01-24T14:13:09.140Z,0.30
2024-01-24T14:15:39.447Z,0.20
2024-01-24T14:18:08.996Z,0.50
2024-01-24T14:20:38.248Z,0.40
2024-01-24T14:23:07.751Z,0.50
2024-01-24T14:25:37.701Z,0.57
2024-01-24T14:28:06.553Z,0.87
2024-01-24T14:30:35.204Z,0.70
2024-01-24T14:33:05.125Z,0.60
2024-01-24T14:35:34.279Z,0.60
2024-01-24T14:38:02.856Z,0.40
2024-01-24T14:40:31.986Z,0.30
2024-01-24T14:43:02.047Z,0.30
2024-01-24T14:45:30.653Z,0.30
2024-01-24T14:47:59.706Z,0.13
2024-01-24T14:50:29.315Z,0.30
2024-01-24T14:52:58.081Z,0.20
2024-01-24T14:55:26.647Z,0.43
2024-01-24T14:57:55.828Z,0.37
2024-01-24T15:00:25.876Z,0.30
2024-01-24T15:02:54.554Z,0.33
2024-01-24T15:05:23.083Z,0.23
2024-01-24T15:07:51.730Z,0.30
2024-01-24T15:10:20.698Z,0.50
2024-01-24T15:12:49.368Z,0.30
2024-01-24T15:15:19.039Z,0.40
2024-01-24T15:17:49.933Z,0.33
2024-01-24T15:20:19.996Z,0.30
2024-01-24T15:22:51.259Z,0.30
2024-01-24T15:25:19.973Z,0.20
2024-01-24T15:27:49.120Z,0.30
2024-01-24T15:30:19.538Z,0.30
2024-01-24T15:32:49.602Z,0.20
2024-01-24T15:35:19.528Z,0.20
2024-01-24T15:37:48.174Z,0.30
2024-01-24T15:40:20.547Z,0.43
2024-01-24T15:42:51.409Z,1.00
2024-01-24T15:45:25.504Z,0.60
2024-01-24T15:47:55.626Z,0.60
2024-01-24T15:50:24.404Z,0.47
2024-01-24T15:52:53.192Z,0.70
2024-01-24T15:55:21.918Z,0.60
2024-01-24T15:57:50.616Z,0.50
2024-01-24T16:00:21.205Z,0.60
2024-01-24T16:02:50.812Z,0.50
2024-01-24T16:05:25.142Z,0.20
2024-01-24T16:07:54.142Z,0.10
2024-01-24T16:10:22.855Z,0.27
2024-01-24T16:12:51.430Z,0.30
2024-01-24T16:15:20.116Z,0.20
2024-01-24T16:17:48.749Z,0.43
2024-01-24T16:20:17.612Z,0.50
2024-01-24T16:22:54.827Z,0.47
2024-01-24T16:25:25.243Z,0.63
2024-01-24T16:27:54.376Z,1.20
2024-01-24T16:30:26.487Z,1.20
2024-01-24T16:32:55.655Z,0.50
2024-01-24T16:35:24.788Z,0.50
2024-01-24T16:37:54.852Z,0.80
2024-01-24T16:40:23.412Z,1.33
2024-01-24T16:42:51.957Z,1.33
2024-01-24T16:45:20.715Z,1.00
2024-01-24T16:47:49.337Z,0.50
2024-01-24T16:50:17.996Z,0.43
2024-01-24T16:52:46.528Z,0.50
2024-01-24T16:55:16.588Z,0.50
2024-01-24T16:57:45.145Z,0.40
2024-01-24T17:00:14.086Z,0.30
2024-01-24T17:02:46.673Z,0.50
2024-01-24T17:05:20.402Z,0.20
2024-01-24T17:07:49.000Z,0.30
2024-01-24T17:10:19.033Z,0.10
2024-01-24T17:12:48.094Z,0.30
2024-01-24T17:15:16.995Z,0.10
2024-01-24T17:17:45.802Z,0.10
2024-01-24T17:20:14.373Z,0.20
2024-01-24T17:22:43.369Z,0.10
2024-01-24T17:25:14.251Z,0.20
2024-01-24T17:27:44.201Z,0.10
2024-01-24T17:30:13.382Z,0.30
2024-01-24T17:32:43.057Z,0.00
2024-01-24T17:35:11.666Z,0.30
2024-01-24T17:37:40.737Z,0.20
2024-01-24T17:40:10.477Z,0.20
2024-01-24T17:42:40.321Z,0.13
2024-01-24T17:45:11.263Z,0.10
2024-01-24T17:47:41.792Z,0.10
2024-01-24T17:50:10.711Z,0.47
2024-01-24T17:52:39.879Z,0.13
2024-01-24T17:55:09.046Z,0.13
2024-01-24T17:57:38.004Z,0.10
2024-01-24T18:00:07.545Z,0.30
2024-01-24T18:02:37.530Z,0.13
2024-01-24T18:05:06.401Z,0.40
2024-01-24T18:07:35.221Z,0.20
2024-01-24T18:10:04.315Z,0.30
2024-01-24T18:12:33.606Z,0.30
2024-01-24T18:15:02.180Z,0.20
2024-01-24T18:17:31.710Z,0.27
2024-01-24T18:20:01.919Z,0.30
2024-01-24T18:22:30.484Z,0.30
2024-01-24T18:24:59.059Z,0.30
2024-01-24T18:27:27.618Z,0.50
2024-01-24T18:29:56.826Z,0.33
2024-01-24T18:32:25.396Z,0.30
2024-01-24T18:34:54.098Z,0.50
2024-01-24T18:37:24.660Z,0.50
2024-01-24T18:39:53.201Z,0.50
2024-01-24T18:42:22.962Z,0.50
2024-01-24T18:44:52.049Z,0.47
2024-01-24T18:47:20.676Z,0.63
2024-01-24T18:49:49.324Z,0.20
2024-01-24T18:52:18.584Z,0.43
2024-01-24T18:54:48.907Z,0.30
2024-01-24T18:57:17.545Z,0.60
2024-01-24T18:59:47.045Z,0.70
2024-01-24T19:02:16.980Z,0.70
2024-01-24T19:04:47.138Z,0.80
2024-01-24T19:07:17.035Z,1.00
2024-01-24T19:09:47.449Z,0.90
2024-01-24T19:12:19.827Z,0.77
2024-01-24T19:14:49.076Z,0.60
2024-01-24T19:17:17.762Z,0.50
2024-01-24T19:19:46.731Z,0.50
2024-01-24T19:22:15.554Z,0.50
2024-01-24T19:24:44.134Z,0.50
2024-01-24T19:27:13.604Z,0.80
2024-01-24T19:29:43.690Z,0.90
2024-01-24T19:32:12.221Z,0.90
2024-01-24T19:34:41.929Z,0.90
2024-01-24T19:37:10.583Z,0.70
2024-01-24T19:39:39.289Z,0.70
2024-01-24T19:42:08.150Z,0.70
2024-01-24T19:44:36.738Z,1.27
2024-01-24T19:47:07.004Z,1.00
2024-01-24T19:49:35.768Z,0.93
2024-01-24T19:52:04.372Z,1.00
2024-01-24T19:54:32.931Z,0.90
2024-01-24T19:57:01.489Z,1.10
2024-01-24T19:59:30.277Z,0.80
2024-01-24T20:01:59.909Z,1.20
2024-01-24T20:04:30.473Z,1.10
2024-01-24T20:06:59.225Z,0.93
2024-01-24T20:09:27.824Z,0.97
2024-01-24T20:11:56.420Z,0.90
2024-01-24T20:14:25.460Z,1.37
2024-01-24T20:16:54.424Z,1.40
2024-01-24T20:19:23.081Z,1.30
2024-01-24T20:21:53.027Z,1.40
2024-01-24T20:24:22.788Z,1.30
2024-01-24T20:26:51.334Z,1.10
2024-01-24T20:29:20.371Z,1.00
2024-01-24T20:31:50.073Z,0.60
2024-01-24T20:34:18.986Z,0.97
2024-01-24T20:36:47.684Z,0.83
2024-01-24T20:39:18.594Z,0.80
2024-01-24T20:41:47.914Z,1.20
2024-01-24T20:44:16.656Z,0.80
2024-01-24T20:46:45.273Z,0.90
2024-01-24T20:49:13.877Z,0.83
2024-01-24T20:51:42.480Z,0.87
2024-01-24T20:54:11.060Z,0.90
2024-01-24T20:56:41.049Z,0.90
2024-01-24T20:59:10.235Z,0.93
2024-01-24T21:01:38.999Z,0.80
2024-01-24T21:04:08.722Z,1.13
2024-01-24T21:06:37.343Z,1.13
2024-01-24T21:09:06.165Z,1.10
2024-01-24T21:11:34.728Z,1.07
2024-01-24T21:14:04.657Z,1.03
2024-01-24T21:16:33.441Z,1.17
2024-01-24T21:19:02.049Z,1.13
2024-01-24T21:21:30.686Z,1.10
2024-01-24T21:23:59.214Z,0.90
2024-01-24T21:26:27.765Z,0.60
2024-01-24T21:28:57.810Z,0.77
2024-01-24T21:31:27.776Z,0.60
2024-01-24T21:33:56.333Z,0.70
2024-01-24T21:36:23.907Z,0.70
2024-01-24T21:38:53.039Z,0.70
2024-01-24T21:41:21.595Z,0.70
2024-01-24T21:43:51.371Z,0.80
2024-01-24T21:46:20.179Z,0.80
2024-01-24T21:48:50.426Z,0.73
2024-01-24T21:51:19.758Z,0.90
2024-01-24T21:53:48.305Z,0.80
2024-01-24T21:56:16.849Z,0.90
2024-01-24T21:58:45.583Z,0.80
2024-01-24T22:01:14.720Z,0.83
2024-01-24T22:03:43.404Z,0.80
2024-01-24T22:06:14.830Z,1.00
2024-01-24T22:08:44.664Z,0.80
2024-01-24T22:11:15.006Z,1.00
2024-01-24T22:13:43.542Z,0.83
2024-01-24T22:16:12.470Z,0.90
2024-01-24T22:18:47.537Z,0.93
2024-01-24T22:21:18.852Z,0.97
2024-01-24T22:23:48.029Z,0.80
2024-01-24T22:26:16.554Z,0.70
2024-01-24T22:28:45.050Z,0.80
2024-01-24T22:31:13.983Z,0.90
2024-01-24T22:33:42.721Z,0.77
2024-01-24T22:36:11.492Z,1.00
2024-01-24T22:38:41.386Z,0.90
2024-01-24T22:41:09.932Z,0.80
2024-01-24T22:43:40.817Z,0.70
2024-01-24T22:46:09.369Z,0.70
2024-01-24T22:48:38.521Z,0.53
2024-01-24T22:51:07.750Z,0.70
2024-01-24T22:53:36.313Z,0.60
2024-01-24T22:56:06.602Z,0.70
2024-01-24T22:58:35.103Z,0.77
2024-01-24T23:01:03.790Z,0.60
2024-01-24T23:03:32.391Z,0.70
2024-01-24T23:06:00.923Z,0.80
2024-01-24T23:08:29.342Z,0.60
2024-01-24T23:10:58.247Z,0.80
2024-01-24T23:13:28.085Z,0.53
2024-01-24T23:15:56.530Z,0.63
2024-01-24T23:18:25.250Z,0.70
2024-01-24T23:20:55.382Z,0.60
2024-01-24T23:23:23.846Z,0.60
2024-01-24T23:25:53.235Z,0.53
2024-01-24T23:28:21.743Z,0.60
2024-01-24T23:30:51.720Z,0.70
2024-01-24T23:33:20.793Z,0.90
2024-01-24T23:35:49.548Z,0.63
2024-01-24T23:38:17.991Z,0.80
2024-01-24T23:40:46.402Z,0.70
2024-01-24T23:43:15.027Z,0.43
2024-01-24T23:45:43.609Z,0.60
2024-01-24T23:48:13.669Z,0.80
2024-01-24T23:50:42.451Z,0.70
2024-01-24T23:53:11.075Z,0.60
2024-01-24T23:55:39.516Z,0.70
2024-01-24T23:58:07.964Z,0.60
